Time;durP1;ratioP1;P1;durP2;ratioP2;P2;SDS_P1;SDS_P2;PMS_P1;PMS_P2;Temp;Humidity;BMP_temperature;BMP_pressure;BME280_temperature;BME280_humidity;BME280_pressure;Samples;Min_cycle;Max_cycle;Signal;HPM_P1;HPM_P2
2022/06/08 00:02:16;;;;;;;21.67;7.43;;;12.20;99.90;;;;;;5055320;28;20024;-71
2022/06/08 00:04:42;;;;;;;22.65;8.20;;;12.20;99.90;;;;;;5055025;28;20082;-71
2022/06/08 00:07:08;;;;;;;22.10;8.02;;;12.20;99.90;;;;;;5054765;28;20029;-71
2022/06/08 00:09:33;;;;;;;19.30;8.30;;;12.20;99.90;;;;;;5055022;28;20017;-71
2022/06/08 00:12:00;;;;;;;20.98;7.97;;;12.20;99.90;;;;;;5055360;28;20033;-70
2022/06/08 00:14:26;;;;;;;28.35;8.88;;;12.20;99.90;;;;;;5053569;28;20036;-71
2022/06/08 00:16:51;;;;;;;20.80;8.45;;;12.20;99.90;;;;;;5054998;28;20378;-71
2022/06/08 00:19:17;;;;;;;16.58;9.70;;;12.20;99.90;;;;;;5054765;28;20041;-71
2022/06/08 00:21:43;;;;;;;27.38;8.93;;;12.20;99.90;;;;;;5049401;28;20477;-71
2022/06/08 00:24:09;;;;;;;27.58;8.35;;;12.20;99.90;;;;;;5054536;28;20029;-71
2022/06/08 00:26:36;;;;;;;25.65;8.52;;;12.20;99.90;;;;;;5086529;23;20116;-75
2022/06/08 00:29:02;;;;;;;22.55;9.48;;;12.20;99.90;;;;;;5055228;28;20112;-74
2022/06/08 00:31:27;;;;;;;25.92;9.52;;;12.20;99.90;;;;;;5054856;28;20021;-74
2022/06/08 00:33:53;;;;;;;19.98;9.60;;;12.20;99.90;;;;;;5055024;28;20021;-74
2022/06/08 00:36:19;;;;;;;31.50;9.20;;;12.20;99.90;;;;;;5054675;28;20028;-74
2022/06/08 00:38:44;;;;;;;19.70;10.10;;;12.20;99.90;;;;;;5054743;28;20044;-74
2022/06/08 00:41:18;;;;;;;23.40;10.02;;;12.10;99.90;;;;;;5055219;28;20104;-73
2022/06/08 00:43:44;;;;;;;20.73;9.20;;;12.20;99.90;;;;;;5054555;28;20025;-73
2022/06/08 00:46:11;;;;;;;20.70;8.98;;;12.10;99.90;;;;;;5053632;28;20036;-74
2022/06/08 00:48:52;;;;;;;17.73;9.40;;;12.10;99.90;;;;;;5054549;28;20021;-74
2022/06/08 00:51:18;;;;;;;24.08;9.65;;;12.10;99.90;;;;;;5049240;28;20025;-74
2022/06/08 00:54:06;;;;;;;25.70;11.02;;;12.00;99.90;;;;;;5034599;28;20018;-73
2022/06/08 00:56:37;;;;;;;37.42;10.93;;;12.00;99.90;;;;;;5034737;28;20211;-74
2022/06/08 00:59:04;;;;;;;32.50;11.05;;;12.00;99.90;;;;;;5034927;28;20385;-74
2022/06/08 01:01:30;;;;;;;28.45;11.65;;;12.00;99.90;;;;;;5034346;28;20028;-74
2022/06/08 01:04:25;;;;;;;33.40;11.25;;;11.90;99.90;;;;;;5034279;28;20030;-73
2022/06/08 01:06:55;;;;;;;25.67;11.82;;;11.90;99.90;;;;;;5029753;28;20044;-74
2022/06/08 01:09:34;;;;;;;26.13;10.20;;;11.90;99.90;;;;;;5034570;28;20021;-73
2022/06/08 01:12:03;;;;;;;26.50;10.00;;;11.80;99.90;;;;;;5034177;28;20076;-73
2022/06/08 01:14:29;;;;;;;28.23;10.57;;;11.80;99.90;;;;;;5034116;28;20474;-73
2022/06/08 01:17:07;;;;;;;28.90;8.63;;;11.70;99.90;;;;;;5034447;28;20037;-74
2022/06/08 01:19:35;;;;;;;31.92;9.30;;;11.80;99.90;;;;;;5034737;28;20108;-74
2022/06/08 01:22:02;;;;;;;33.47;8.82;;;11.80;99.90;;;;;;5033888;28;20056;-74
2022/06/08 01:24:28;;;;;;;25.38;8.20;;;11.80;99.90;;;;;;5034368;28;20029;-73
2022/06/08 01:27:17;;;;;;;24.40;7.32;;;11.80;99.90;;;;;;5032641;28;20030;-74
2022/06/08 01:30:23;;;;;;;26.25;7.75;;;11.80;99.90;;;;;;5034031;28;20108;-74
2022/06/08 01:33:25;;;;;;;21.33;7.78;;;11.80;99.90;;;;;;5034259;28;20532;-73
2022/06/08 01:35:56;;;;;;;24.27;7.55;;;11.80;99.90;;;;;;5034312;28;20025;-73
2022/06/08 01:38:50;;;;;;;20.80;6.95;;;11.80;99.90;;;;;;5033630;28;20038;-74
2022/06/08 01:41:45;;;;;;;24.33;7.20;;;11.80;99.90;;;;;;5034540;28;20112;-73
2022/06/08 01:44:29;;;;;;;30.85;8.77;;;11.80;99.90;;;;;;5014679;28;20061;-73
2022/06/08 01:47:14;;;;;;;28.95;8.02;;;11.80;99.90;;;;;;5015802;28;20454;-74
2022/06/08 01:49:59;;;;;;;16.33;6.53;;;11.80;99.90;;;;;;5014173;28;20026;-74
2022/06/08 01:52:56;;;;;;;32.15;8.13;;;11.80;99.90;;;;;;5014381;28;20026;-74
2022/06/08 01:55:28;;;;;;;23.90;7.03;;;11.80;99.90;;;;;;5014224;28;20025;-74
2022/06/08 01:58:03;;;;;;;29.50;7.95;;;11.80;99.90;;;;;;5036706;28;20088;-74
2022/06/08 02:00:34;;;;;;;26.13;5.90;;;11.80;99.90;;;;;;5036528;28;20021;-74
2022/06/08 02:03:28;;;;;;;25.85;6.25;;;11.80;99.90;;;;;;5037669;28;20025;-74
2022/06/08 02:06:06;;;;;;;21.65;6.70;;;11.80;99.90;;;;;;5036229;28;20017;-74
2022/06/08 02:08:52;;;;;;;32.67;8.20;;;11.80;99.90;;;;;;5037607;28;20045;-74
2022/06/08 02:11:32;;;;;;;28.17;8.35;;;11.80;99.90;;;;;;5037008;28;20044;-74
2022/06/08 02:14:05;;;;;;;20.70;8.35;;;11.90;99.90;;;;;;5037749;28;20057;-73
2022/06/08 02:16:49;;;;;;;16.05;7.82;;;11.90;99.90;;;;;;5037737;28;20108;-74
2022/06/08 02:19:33;;;;;;;44.47;9.55;;;11.90;99.90;;;;;;5037435;28;20025;-74
2022/06/08 02:22:27;;;;;;;33.17;10.52;;;12.00;99.90;;;;;;5037382;28;20033;-74
2022/06/08 02:25:06;;;;;;;18.15;8.75;;;11.90;99.90;;;;;;5037522;28;20026;-74
2022/06/08 02:27:42;;;;;;;20.70;9.40;;;11.90;99.90;;;;;;5037166;28;20030;-74
2022/06/08 02:30:13;;;;;;;25.20;10.20;;;11.90;99.90;;;;;;5037888;28;20449;-74
2022/06/08 02:35:43;;;;;;;20.23;9.60;;;12.00;99.90;;;;;;5037339;28;20436;-74
2022/06/08 02:38:15;;;;;;;20.27;9.65;;;11.90;99.90;;;;;;5037132;28;20032;-74
2022/06/08 02:40:47;;;;;;;30.77;10.32;;;11.90;99.90;;;;;;5036935;28;20022;-73
2022/06/08 02:43:22;;;;;;;24.02;10.20;;;11.90;99.90;;;;;;5036962;28;20112;-74
2022/06/08 02:45:58;;;;;;;21.65;8.48;;;11.90;99.90;;;;;;5035779;28;20101;-74
2022/06/08 02:48:23;;;;;;;25.17;8.93;;;11.90;99.90;;;;;;5037171;28;20029;-74
2022/06/08 02:50:55;;;;;;;23.25;7.47;;;11.90;99.90;;;;;;5036796;28;20029;-73
2022/06/08 02:53:22;;;;;;;18.08;7.05;;;11.90;99.90;;;;;;5036833;28;20032;-73
2022/06/08 02:56:05;;;;;;;27.50;7.78;;;12.00;99.90;;;;;;5037413;28;20080;-73
2022/06/08 02:58:39;;;;;;;19.65;8.48;;;11.90;99.90;;;;;;5037027;28;20389;-74
2022/06/08 03:01:13;;;;;;;21.45;8.75;;;11.90;99.90;;;;;;5036860;28;20025;-74
2022/06/08 03:03:45;;;;;;;29.35;10.30;;;11.90;99.90;;;;;;5036412;28;20378;-74
2022/06/08 03:06:16;;;;;;;23.70;7.25;;;11.90;99.90;;;;;;5036740;28;20032;-74
2022/06/08 03:08:57;;;;;;;14.77;7.18;;;11.90;99.90;;;;;;5035858;28;20025;-74
2022/06/08 03:11:25;;;;;;;24.10;9.52;;;12.00;99.90;;;;;;5036704;28;20029;-74
2022/06/08 03:13:55;;;;;;;28.58;10.05;;;12.00;99.90;;;;;;5036376;28;20026;-74
2022/06/08 03:16:27;;;;;;;24.88;9.23;;;12.00;99.90;;;;;;5036709;28;20109;-73
2022/06/08 03:18:53;;;;;;;16.15;7.32;;;11.90;99.90;;;;;;5036313;28;20424;-73
2022/06/08 03:21:19;;;;;;;16.05;7.05;;;11.90;99.90;;;;;;5036150;28;20026;-73
2022/06/08 03:23:44;;;;;;;15.65;6.00;;;11.90;99.90;;;;;;5036310;28;20029;-73
2022/06/08 03:26:10;;;;;;;16.77;7.45;;;11.90;99.90;;;;;;5036322;28;20446;-74
2022/06/08 03:28:36;;;;;;;19.63;6.95;;;11.90;99.90;;;;;;5036377;28;20030;-74
2022/06/08 03:31:01;;;;;;;13.13;6.35;;;12.00;99.90;;;;;;5034943;28;20473;-75
2022/06/08 03:33:27;;;;;;;14.80;6.78;;;11.90;99.90;;;;;;5035839;28;20486;-74
2022/06/08 03:35:52;;;;;;;15.45;6.40;;;11.90;99.90;;;;;;5036044;28;20026;-74
2022/06/08 03:38:18;;;;;;;13.18;6.78;;;12.00;99.90;;;;;;5035993;28;20128;-73
2022/06/08 03:40:44;;;;;;;13.98;7.10;;;12.00;99.90;;;;;;5035919;28;20087;-73
2022/06/08 03:43:10;;;;;;;13.98;8.15;;;11.90;99.90;;;;;;5035747;28;20080;-74
2022/06/08 03:45:45;;;;;;;19.13;8.02;;;12.00;99.90;;;;;;5035997;28;20024;-74
2022/06/08 03:48:12;;;;;;;21.90;8.25;;;12.00;99.90;;;;;;5036856;28;20025;-74
2022/06/08 03:50:41;;;;;;;21.50;9.55;;;12.00;99.90;;;;;;5035601;28;20389;-74
2022/06/08 03:53:12;;;;;;;27.85;9.63;;;12.00;99.90;;;;;;5035758;28;20068;-74
2022/06/08 03:55:39;;;;;;;21.70;9.30;;;12.10;99.90;;;;;;5035969;28;20028;-74
2022/06/08 03:58:05;;;;;;;15.43;7.25;;;12.10;99.90;;;;;;5035768;28;20028;-74
2022/06/08 04:00:32;;;;;;;21.83;8.20;;;12.10;99.90;;;;;;5035712;28;20029;-74
2022/06/08 04:02:58;;;;;;;22.27;7.53;;;12.10;99.90;;;;;;5035703;28;20112;-74
2022/06/08 04:05:24;;;;;;;20.25;7.78;;;12.10;99.90;;;;;;5035743;28;20044;-74
2022/06/08 04:07:49;;;;;;;33.95;9.73;;;12.10;99.90;;;;;;5037338;28;20497;-74
2022/06/08 04:10:15;;;;;;;27.75;8.60;;;12.10;99.90;;;;;;5037285;28;20056;-74
2022/06/08 04:12:41;;;;;;;11.85;7.47;;;12.20;99.90;;;;;;5035535;28;20029;-74
2022/06/08 04:15:07;;;;;;;21.75;8.48;;;12.10;99.90;;;;;;5035205;28;20057;-74
2022/06/08 04:17:33;;;;;;;18.42;7.32;;;12.10;99.90;;;;;;5035184;28;20032;-74
2022/06/08 04:19:59;;;;;;;14.63;6.90;;;12.10;99.90;;;;;;5035083;28;20029;-73
2022/06/08 04:22:31;;;;;;;27.33;7.85;;;12.10;99.90;;;;;;5035234;28;20037;-73
2022/06/08 04:24:59;;;;;;;24.15;7.35;;;12.10;99.90;;;;;;5035189;28;20068;-73
2022/06/08 04:27:24;;;;;;;26.85;7.60;;;12.20;99.90;;;;;;5034815;28;20401;-74
2022/06/08 04:29:51;;;;;;;21.63;7.00;;;12.30;99.90;;;;;;5034977;28;20022;-74
2022/06/08 04:32:18;;;;;;;16.92;7.97;;;12.20;99.90;;;;;;5035190;28;20025;-74
2022/06/08 04:34:44;;;;;;;19.45;7.28;;;12.30;99.90;;;;;;5034919;28;20072;-73
2022/06/08 04:37:09;;;;;;;22.75;8.02;;;12.30;99.90;;;;;;5035208;28;20556;-74
2022/06/08 04:39:35;;;;;;;21.23;8.73;;;12.30;99.90;;;;;;5035003;28;20543;-74
2022/06/08 04:42:02;;;;;;;17.65;7.82;;;12.30;99.90;;;;;;5034769;28;20030;-73
2022/06/08 04:44:27;;;;;;;20.35;8.15;;;12.30;99.90;;;;;;5034713;28;20393;-73
2022/06/08 04:46:53;;;;;;;16.23;8.18;;;12.30;99.90;;;;;;5034622;28;20029;-73
2022/06/08 04:49:19;;;;;;;30.70;8.27;;;12.30;99.90;;;;;;5034499;28;20037;-73
2022/06/08 04:51:45;;;;;;;22.17;8.40;;;12.30;99.90;;;;;;5034652;28;20104;-73
2022/06/08 04:54:11;;;;;;;14.90;7.68;;;12.30;99.90;;;;;;5034600;28;20025;-73
2022/06/08 04:56:36;;;;;;;18.63;7.53;;;12.40;99.90;;;;;;5034503;28;20029;-73
2022/06/08 04:59:02;;;;;;;18.02;7.88;;;12.40;99.90;;;;;;5034417;28;20041;-73
2022/06/08 05:01:28;;;;;;;14.23;8.32;;;12.40;99.90;;;;;;5034172;28;20496;-74
2022/06/08 05:03:53;;;;;;;13.10;6.10;;;12.40;99.90;;;;;;5034348;28;20026;-74
2022/06/08 05:06:20;;;;;;;15.25;7.63;;;12.50;99.90;;;;;;5034437;28;20462;-74
2022/06/08 05:08:45;;;;;;;16.05;6.22;;;12.50;99.90;;;;;;5034388;28;20381;-73
2022/06/08 05:11:11;;;;;;;17.33;7.63;;;12.60;99.90;;;;;;5034425;28;20021;-73
2022/06/08 05:13:37;;;;;;;11.52;6.07;;;12.70;99.90;;;;;;5033007;28;20049;-73
2022/06/08 05:16:04;;;;;;;11.57;6.50;;;12.80;99.90;;;;;;5034256;28;20119;-74
2022/06/08 05:18:30;;;;;;;19.40;6.15;;;12.90;99.90;;;;;;5034200;28;20152;-74
2022/06/08 05:20:55;;;;;;;18.40;7.50;;;13.10;99.90;;;;;;5034098;28;20072;-73
2022/06/08 05:23:25;;;;;;;19.70;6.78;;;13.10;99.90;;;;;;5032943;28;20025;-73
2022/06/08 05:25:52;;;;;;;17.35;6.45;;;13.20;99.90;;;;;;5034521;28;20017;-73
2022/06/08 05:28:19;;;;;;;11.85;6.05;;;13.30;99.90;;;;;;5033808;28;20540;-73
2022/06/08 05:30:44;;;;;;;13.80;5.80;;;13.40;99.90;;;;;;5033941;28;20060;-73
2022/06/08 05:33:10;;;;;;;13.63;7.13;;;13.60;99.90;;;;;;5032283;28;20053;-74
2022/06/08 05:35:37;;;;;;;15.60;6.10;;;13.60;99.90;;;;;;5033961;28;20018;-74
2022/06/08 05:38:03;;;;;;;16.90;6.72;;;13.60;99.90;;;;;;5033835;28;20109;-73
2022/06/08 05:40:32;;;;;;;8.20;5.82;;;13.50;99.90;;;;;;5033819;28;20025;-73
2022/06/08 05:42:59;;;;;;;14.68;7.30;;;13.50;99.90;;;;;;5033726;28;20117;-74
2022/06/08 05:45:28;;;;;;;12.48;6.15;;;13.50;99.90;;;;;;5033808;28;20096;-74
2022/06/08 05:47:55;;;;;;;18.50;5.82;;;13.50;99.90;;;;;;5033769;28;20021;-74
2022/06/08 05:50:21;;;;;;;16.80;5.45;;;13.50;99.90;;;;;;5033872;28;20108;-73
2022/06/08 05:52:47;;;;;;;10.05;5.53;;;13.50;99.90;;;;;;5033585;28;20053;-73
2022/06/08 05:55:14;;;;;;;13.70;6.00;;;13.50;99.90;;;;;;5033768;28;20033;-73
2022/06/08 05:57:40;;;;;;;13.45;5.25;;;13.50;99.90;;;;;;5033554;28;20026;-74
2022/06/08 06:00:09;;;;;;;18.05;6.05;;;13.50;99.90;;;;;;5033663;28;20034;-74
2022/06/08 06:02:35;;;;;;;13.13;5.32;;;13.50;99.90;;;;;;5033750;28;20029;-74
2022/06/08 06:05:00;;;;;;;20.10;6.45;;;13.50;99.90;;;;;;5033612;28;20385;-74
2022/06/08 06:07:26;;;;;;;12.75;5.68;;;13.40;99.90;;;;;;5033540;28;20115;-73
2022/06/08 06:09:51;;;;;;;9.55;5.05;;;13.40;99.90;;;;;;5033598;28;20494;-74
2022/06/08 06:12:17;;;;;;;14.55;5.75;;;13.50;99.90;;;;;;5033564;28;20045;-73
2022/06/08 06:14:45;;;;;;;15.35;5.15;;;13.50;99.90;;;;;;5033557;28;20552;-73
2022/06/08 06:17:10;;;;;;;10.93;4.93;;;13.60;99.90;;;;;;5033655;28;20393;-73
2022/06/08 06:19:36;;;;;;;10.65;4.15;;;13.60;99.90;;;;;;5049277;28;20021;-73
2022/06/08 06:22:02;;;;;;;9.88;5.05;;;13.60;99.90;;;;;;5033547;28;20103;-73
2022/06/08 06:24:28;;;;;;;15.07;5.55;;;13.60;99.90;;;;;;5033798;28;20027;-73
2022/06/08 06:26:54;;;;;;;12.68;6.32;;;13.60;99.90;;;;;;5033958;28;20032;-74
2022/06/08 06:29:20;;;;;;;7.93;4.43;;;13.60;99.90;;;;;;5033427;28;20503;-74
2022/06/08 06:31:53;;;;;;;15.27;5.95;;;13.80;99.90;;;;;;5034081;28;20109;-73
2022/06/08 06:34:22;;;;;;;14.32;5.57;;;14.00;99.90;;;;;;5034408;28;20505;-73
2022/06/08 06:36:48;;;;;;;17.85;4.75;;;14.00;99.90;;;;;;5033743;28;20094;-73
2022/06/08 06:39:14;;;;;;;10.82;4.28;;;14.00;99.90;;;;;;5033325;28;20490;-73
2022/06/08 06:41:40;;;;;;;12.30;4.68;;;14.00;99.90;;;;;;5033086;28;20037;-73
2022/06/08 06:44:06;;;;;;;15.15;4.45;;;14.20;99.90;;;;;;5034710;28;20037;-73
2022/06/08 06:46:32;;;;;;;11.48;4.50;;;14.30;99.90;;;;;;5036806;28;20108;-74
2022/06/08 06:48:57;;;;;;;19.27;4.10;;;14.50;99.90;;;;;;5037018;28;20107;-74
2022/06/08 06:51:23;;;;;;;18.00;3.95;;;14.40;99.90;;;;;;5036654;28;20025;-74
2022/06/08 06:53:49;;;;;;;14.20;3.80;;;14.50;99.90;;;;;;5036519;28;20033;-73
2022/06/08 06:56:14;;;;;;;8.52;3.78;;;14.60;99.90;;;;;;5037038;28;20029;-73
2022/06/08 06:58:40;;;;;;;17.20;5.22;;;14.70;99.90;;;;;;5036559;28;20060;-73
2022/06/08 07:01:06;;;;;;;18.60;5.05;;;14.90;99.90;;;;;;5036603;28;20047;-74
2022/06/08 07:03:33;;;;;;;15.48;3.95;;;14.80;99.90;;;;;;5036493;28;20029;-74
2022/06/08 07:05:59;;;;;;;17.35;4.13;;;15.00;99.90;;;;;;5036382;28;20123;-74
2022/06/08 07:08:25;;;;;;;10.50;3.95;;;15.30;99.90;;;;;;5036672;28;20026;-73
2022/06/08 07:13:35;;;;;;;16.90;4.55;;;15.40;99.90;;;;;;5036311;28;20059;-74
2022/06/08 07:16:01;;;;;;;19.42;5.88;;;15.50;99.90;;;;;;5036070;28;20026;-74
2022/06/08 07:18:27;;;;;;;12.43;4.50;;;15.40;99.90;;;;;;5036265;28;20028;-73
2022/06/08 07:20:53;;;;;;;15.52;4.55;;;15.40;99.90;;;;;;5036521;28;20492;-74
2022/06/08 07:23:19;;;;;;;15.27;4.80;;;15.40;99.90;;;;;;5036471;28;20033;-74
2022/06/08 07:25:45;;;;;;;11.55;5.32;;;15.30;99.90;;;;;;5035141;28;20557;-74
2022/06/08 07:28:10;;;;;;;14.30;5.63;;;15.20;99.90;;;;;;5036037;28;20037;-74
2022/06/08 07:30:36;;;;;;;13.52;6.07;;;15.30;99.90;;;;;;5036397;28;20028;-74
2022/06/08 07:33:02;;;;;;;17.08;5.35;;;15.50;99.90;;;;;;5035949;28;20033;-74
2022/06/08 07:35:29;;;;;;;15.00;6.32;;;15.50;99.90;;;;;;5035925;28;20029;-74
2022/06/08 07:37:55;;;;;;;13.88;5.38;;;15.30;99.90;;;;;;5036149;28;20029;-74
2022/06/08 07:40:20;;;;;;;18.33;5.45;;;15.30;99.90;;;;;;5036178;28;20056;-74
2022/06/08 07:42:46;;;;;;;11.88;4.80;;;15.20;99.90;;;;;;5035590;28;20053;-74
2022/06/08 07:45:12;;;;;;;17.92;6.82;;;15.20;99.90;;;;;;5036256;28;20369;-74
2022/06/08 07:49:36;;;;;;;24.42;6.72;;;15.10;99.90;;;;;;5035824;28;20055;-74
2022/06/08 07:50:26;;;;;;;18.20;6.13;;;15.00;99.90;;;;;;5035604;28;20087;-74
2022/06/08 07:52:51;;;;;;;12.85;7.45;;;14.90;99.90;;;;;;5035622;28;20032;-74
2022/06/08 07:55:17;;;;;;;21.88;8.57;;;14.90;99.90;;;;;;5035263;28;20033;-74
2022/06/08 07:57:47;;;;;;;25.58;7.35;;;14.80;99.90;;;;;;5035659;28;20115;-75
2022/06/08 08:00:14;;;;;;;16.67;6.65;;;14.70;99.90;;;;;;5035887;28;20472;-74
2022/06/08 08:02:40;;;;;;;14.88;5.95;;;14.80;99.90;;;;;;5030715;28;20533;-74
2022/06/08 08:05:09;;;;;;;14.15;6.32;;;14.80;99.90;;;;;;5015707;28;20018;-74
2022/06/08 08:07:36;;;;;;;14.10;6.13;;;14.80;99.90;;;;;;5015565;28;20029;-75
2022/06/08 08:10:03;;;;;;;14.77;5.72;;;14.90;99.90;;;;;;5015522;28;20018;-74
2022/06/08 08:12:29;;;;;;;16.95;6.65;;;14.90;99.90;;;;;;5014247;28;20036;-74
2022/06/08 08:14:54;;;;;;;21.85;6.03;;;15.20;99.90;;;;;;5015778;28;20026;-74
2022/06/08 08:17:20;;;;;;;18.48;6.13;;;15.30;99.90;;;;;;5032797;28;20025;-72
2022/06/08 08:19:45;;;;;;;17.02;6.53;;;15.60;99.90;;;;;;5035161;28;20477;-72
2022/06/08 08:22:14;;;;;;;20.13;6.57;;;16.00;99.90;;;;;;5035285;28;20056;-72
2022/06/08 08:24:39;;;;;;;13.82;5.80;;;16.00;99.90;;;;;;5035072;28;20465;-72
2022/06/08 08:27:05;;;;;;;16.02;5.68;;;16.00;99.90;;;;;;5033303;28;20124;-72
2022/06/08 08:29:32;;;;;;;14.75;6.28;;;16.10;99.90;;;;;;5035422;28;20095;-72
2022/06/08 08:31:58;;;;;;;15.75;6.72;;;16.30;99.90;;;;;;5035258;28;20413;-71
2022/06/08 08:34:24;;;;;;;18.20;5.97;;;16.30;99.90;;;;;;5034818;28;20069;-72
2022/06/08 08:36:50;;;;;;;24.05;7.82;;;16.50;99.90;;;;;;5034737;28;20405;-72
2022/06/08 08:39:15;;;;;;;22.33;7.18;;;16.60;99.90;;;;;;5034724;28;20028;-71
2022/06/08 08:44:35;;;;;;;16.63;6.45;;;17.10;99.90;;;;;;5035329;28;20075;-72
2022/06/08 08:47:04;;;;;;;15.32;6.60;;;17.00;99.90;;;;;;5034879;28;20560;-72
2022/06/08 08:49:32;;;;;;;14.70;6.45;;;16.70;99.90;;;;;;5034648;28;20453;-72
2022/06/08 08:52:01;;;;;;;13.15;6.70;;;16.50;99.90;;;;;;5033437;28;20056;-72
2022/06/08 08:54:36;;;;;;;12.55;6.00;;;16.60;99.90;;;;;;5034901;28;20174;-72
2022/06/08 08:57:30;;;;;;;20.33;6.93;;;16.80;99.90;;;;;;5036798;28;20017;-72
2022/06/08 08:59:56;;;;;;;15.90;6.55;;;16.70;99.90;;;;;;5035947;28;20052;-71
2022/06/08 09:05:17;;;;;;;16.38;7.55;;;16.50;99.90;;;;;;5034540;28;20164;-71
2022/06/08 09:07:43;;;;;;;13.80;7.57;;;16.90;99.90;;;;;;5033637;28;20029;-71
2022/06/08 09:10:18;;;;;;;11.60;7.10;;;17.30;99.90;;;;;;5034353;28;20022;-71
2022/06/08 09:12:44;;;;;;;18.13;7.45;;;17.40;99.90;;;;;;5034988;28;20032;-72
2022/06/08 09:15:12;;;;;;;19.75;8.68;;;17.50;99.90;;;;;;5033003;28;20456;-72
2022/06/08 09:17:49;;;;;;;19.40;8.50;;;17.50;99.90;;;;;;5034197;28;20042;-72
2022/06/08 09:20:31;;;;;;;15.65;8.20;;;17.60;99.90;;;;;;5033937;28;20069;-71
2022/06/08 09:23:00;;;;;;;15.88;8.40;;;17.80;99.90;;;;;;5033819;28;20385;-71
2022/06/08 09:25:29;;;;;;;14.07;7.68;;;18.10;99.90;;;;;;5034090;28;20026;-71
2022/06/08 09:27:57;;;;;;;17.95;7.15;;;18.30;99.90;;;;;;5033641;28;20072;-71
2022/06/08 09:30:31;;;;;;;18.55;7.43;;;18.80;99.90;;;;;;5032800;28;20499;-71
2022/06/08 09:33:00;;;;;;;19.08;8.40;;;18.60;99.90;;;;;;5033836;28;20466;-71
2022/06/08 09:35:29;;;;;;;17.27;8.73;;;18.80;99.90;;;;;;5033838;28;20029;-71
2022/06/08 09:38:13;;;;;;;12.13;7.03;;;18.90;99.90;;;;;;5033763;28;20044;-71
2022/06/08 09:40:51;;;;;;;17.88;9.23;;;19.30;99.90;;;;;;5034004;28;20038;-71
2022/06/08 09:43:54;;;;;;;18.73;8.90;;;19.30;99.90;;;;;;5033783;28;20029;-71
2022/06/08 09:51:25;;;;;;;15.75;8.98;;;19.50;99.90;;;;;;5033657;28;20025;-71
2022/06/08 09:52:40;;;;;;;;;;;19.90;99.90;;;;;;5034072;28;20083;-71
2022/06/08 09:55:27;;;;;;;16.52;9.60;;;20.30;99.90;;;;;;5032451;28;19905;-71
2022/06/08 09:57:52;;;;;;;14.80;8.45;;;20.60;99.90;;;;;;5033714;28;20191;-71
2022/06/08 10:00:39;;;;;;;16.95;8.70;;;20.90;99.90;;;;;;5033845;28;20028;-71
2022/06/08 10:03:35;;;;;;;11.80;7.10;;;20.70;99.90;;;;;;5033876;28;20465;-71
2022/06/08 10:06:39;;;;;;;12.88;7.95;;;20.60;99.90;;;;;;5033068;28;20033;-71
2022/06/08 10:09:44;;;;;;;14.43;7.50;;;20.50;99.90;;;;;;5029011;28;20386;-71
2022/06/08 10:12:26;;;;;;;15.02;8.30;;;20.50;99.90;;;;;;5036753;28;20469;-71
2022/06/08 10:15:01;;;;;;;16.55;9.77;;;20.40;99.90;;;;;;5069074;28;20120;-71
2022/06/08 10:17:39;;;;;;;13.13;8.65;;;20.50;99.90;;;;;;5049115;28;20083;-71
2022/06/08 10:20:22;;;;;;;14.05;8.32;;;20.50;99.90;;;;;;5037666;28;20049;-71
2022/06/08 10:22:53;;;;;;;10.30;7.82;;;20.30;99.90;;;;;;5040769;28;20029;-71
2022/06/08 10:25:29;;;;;;;17.52;8.85;;;20.10;99.90;;;;;;5029862;28;20488;-71
2022/06/08 10:28:00;;;;;;;16.15;10.23;;;19.90;99.90;;;;;;5027386;28;20025;-70
2022/06/08 10:30:44;;;;;;;14.20;8.10;;;19.70;99.90;;;;;;5030210;28;20056;-71
2022/06/08 10:33:19;;;;;;;21.80;10.15;;;19.70;99.90;;;;;;5031195;28;20030;-71
2022/06/08 10:35:52;;;;;;;22.35;10.35;;;19.60;99.90;;;;;;5034714;28;20034;-71
2022/06/08 10:38:22;;;;;;;23.35;10.63;;;19.60;99.90;;;;;;5032652;28;20437;-71
2022/06/08 10:40:55;;;;;;;16.50;9.60;;;19.70;99.90;;;;;;5036034;28;20065;-71
2022/06/08 10:43:26;;;;;;;17.38;9.18;;;20.10;99.90;;;;;;5034369;28;20029;-71
2022/06/08 10:46:04;;;;;;;18.00;9.15;;;20.30;99.90;;;;;;5030906;28;20017;-71
2022/06/08 10:48:35;;;;;;;12.27;6.90;;;20.50;99.90;;;;;;5025350;28;20433;-70
2022/06/08 10:51:09;;;;;;;14.43;7.82;;;20.50;99.90;;;;;;5031919;28;20026;-71
2022/06/08 10:56:34;;;;;;;11.52;6.90;;;21.00;99.90;;;;;;5029500;28;20100;-71
2022/06/08 10:59:06;;;;;;;12.43;6.63;;;20.60;99.90;;;;;;5033357;28;20022;-73
2022/06/08 11:01:49;;;;;;;9.25;6.78;;;20.40;99.90;;;;;;5039195;28;20112;-71
2022/06/08 11:04:30;;;;;;;19.65;7.65;;;20.30;99.90;;;;;;5036510;28;20377;-72
2022/06/08 11:07:05;;;;;;;13.45;6.13;;;20.20;99.90;;;;;;5036631;28;20096;-71
2022/06/08 11:09:33;;;;;;;10.45;5.72;;;21.00;99.90;;;;;;5036595;28;20123;-72
2022/06/08 11:12:11;;;;;;;10.52;5.93;;;21.20;99.90;;;;;;5036434;28;20366;-72
2022/06/08 11:14:48;;;;;;;12.88;7.63;;;21.70;99.90;;;;;;5036724;28;20029;-72
2022/06/08 11:17:20;;;;;;;16.60;8.40;;;21.80;99.90;;;;;;5036259;28;20014;-72
2022/06/08 11:19:47;;;;;;;15.95;7.35;;;21.80;99.90;;;;;;5038093;28;20100;-72
2022/06/08 11:22:25;;;;;;;15.43;8.18;;;21.50;99.90;;;;;;5038105;28;20048;-71
2022/06/08 11:24:55;;;;;;;14.32;8.60;;;21.00;99.90;;;;;;5036300;28;20025;-71
2022/06/08 11:27:25;;;;;;;11.30;7.53;;;20.70;99.90;;;;;;5036165;28;20034;-71
2022/06/08 11:29:54;;;;;;;9.15;7.25;;;20.80;99.90;;;;;;5035404;28;20493;-71
2022/06/08 11:32:45;;;;;;;13.75;8.50;;;20.60;99.90;;;;;;5035630;28;20029;-71
2022/06/08 11:35:57;;;;;;;14.98;8.48;;;20.60;99.90;;;;;;5031964;28;20378;-72
2022/06/08 11:38:54;;;;;;;14.60;7.97;;;21.20;99.90;;;;;;5024896;28;20453;-71
2022/06/08 11:41:20;;;;;;;14.80;8.07;;;21.50;99.90;;;;;;5034132;28;20046;-71
2022/06/08 11:43:48;;;;;;;10.48;7.70;;;22.00;99.90;;;;;;5035877;28;20029;-71
2022/06/08 11:46:34;;;;;;;9.48;6.32;;;21.80;99.90;;;;;;5036017;28;20116;-71
2022/06/08 11:49:00;;;;;;;12.82;7.07;;;21.60;99.90;;;;;;5036077;28;20033;-71
2022/06/08 11:51:38;;;;;;;17.10;7.53;;;21.70;99.90;;;;;;5036091;28;20029;-71
2022/06/08 11:54:17;;;;;;;11.70;8.20;;;22.00;99.90;;;;;;5035684;28;20056;-71
2022/06/08 11:56:56;;;;;;;11.02;7.45;;;21.90;99.90;;;;;;5035758;28;20041;-71
2022/06/08 11:59:23;;;;;;;11.70;6.63;;;21.90;99.90;;;;;;5035606;28;20048;-71
2022/06/08 12:01:53;;;;;;;17.17;7.40;;;21.90;99.90;;;;;;5035809;28;20048;-71
2022/06/08 12:04:26;;;;;;;12.85;7.57;;;22.10;99.90;;;;;;5035641;28;20048;-71
2022/06/08 12:06:56;;;;;;;11.48;6.85;;;21.90;99.90;;;;;;5035849;28;20060;-71
2022/06/08 12:09:29;;;;;;;12.15;8.38;;;22.10;99.90;;;;;;5035721;28;20018;-71
2022/06/08 12:12:01;;;;;;;8.95;7.75;;;21.60;99.90;;;;;;5035695;28;20021;-71
2022/06/08 12:14:34;;;;;;;14.40;8.02;;;21.60;99.90;;;;;;5035579;28;20017;-71
2022/06/08 12:16:59;;;;;;;13.93;8.50;;;21.10;99.90;;;;;;5035225;28;20017;-71
2022/06/08 12:19:29;;;;;;;11.10;7.22;;;21.40;99.90;;;;;;5035306;28;20067;-71
2022/06/08 12:22:16;;;;;;;11.88;7.32;;;21.60;99.90;;;;;;5035982;28;20028;-71
2022/06/08 12:24:43;;;;;;;16.75;7.38;;;21.40;99.90;;;;;;5035654;28;20049;-71
2022/06/08 12:27:21;;;;;;;12.07;7.45;;;21.50;99.90;;;;;;5035611;28;20044;-69
2022/06/08 12:29:58;;;;;;;13.55;8.98;;;21.10;99.90;;;;;;5034954;28;20025;-69
2022/06/08 12:32:31;;;;;;;18.08;7.85;;;21.10;99.90;;;;;;5035225;28;20037;-69
2022/06/08 12:35:06;;;;;;;9.73;7.47;;;20.90;99.90;;;;;;5035131;28;20029;-68
2022/06/08 12:37:45;;;;;;;16.27;8.10;;;20.60;99.90;;;;;;5034833;28;20390;-69
2022/06/08 12:40:17;;;;;;;17.08;6.40;;;20.40;99.90;;;;;;5034859;28;20025;-69
2022/06/08 12:42:53;;;;;;;12.45;6.28;;;20.10;99.90;;;;;;5033918;28;20029;-69
2022/06/08 12:45:33;;;;;;;12.23;6.47;;;19.90;99.90;;;;;;5034698;28;20074;-69
2022/06/08 12:48:34;;;;;;;9.30;5.97;;;19.60;99.90;;;;;;5035129;28;20031;-69
2022/06/08 12:51:16;;;;;;;14.43;7.15;;;19.50;99.90;;;;;;5012886;28;20057;-69
2022/06/08 12:53:42;;;;;;;9.73;5.60;;;19.40;99.90;;;;;;5032650;28;20500;-68
2022/06/08 12:56:10;;;;;;;14.20;8.57;;;19.40;99.90;;;;;;5034686;28;20025;-69
2022/06/08 12:58:36;;;;;;;12.35;7.68;;;19.40;99.90;;;;;;5034417;28;20478;-69
2022/06/08 13:01:03;;;;;;;12.30;7.75;;;19.30;99.90;;;;;;5034423;28;20033;-69
2022/06/08 13:03:29;;;;;;;18.70;8.27;;;19.40;99.90;;;;;;5034636;28;20034;-68
2022/06/08 13:05:57;;;;;;;11.88;7.10;;;19.40;99.90;;;;;;5034598;28;20018;-69
2022/06/08 13:08:25;;;;;;;15.13;6.97;;;19.40;99.90;;;;;;5028547;28;20029;-69
2022/06/08 13:10:52;;;;;;;12.35;7.68;;;19.40;99.90;;;;;;5023411;28;20032;-73
2022/06/08 13:13:22;;;;;;;12.60;7.18;;;19.40;99.90;;;;;;5033973;28;20103;-69
2022/06/08 13:15:49;;;;;;;14.25;6.70;;;19.20;99.90;;;;;;5032757;28;20065;-70